sensor_id;sensor_type;location;lat;lon;timestamp;temperature;humidity
36374;DHT22;22399;51.346;12.372;2023-07-20T00:00:36;15.90;99.90
36374;DHT22;22399;51.346;12.372;2023-07-20T00:03:13;15.90;99.90
36374;DHT22;22399;51.346;12.372;2023-07-20T00:05:44;15.90;99.90
36374;DHT22;22399;51.346;12.372;2023-07-20T00:08:12;15.90;99.90
36374;DHT22;22399;51.346;12.372;2023-07-20T00:10:40;16.00;99.90
36374;DHT22;22399;51.346;12.372;2023-07-20T00:13:10;15.90;99.90
36374;DHT22;22399;51.346;12.372;2023-07-20T00:15:39;15.90;99.90
36374;DHT22;22399;51.346;12.372;2023-07-20T00:18:07;15.80;99.90
36374;DHT22;22399;51.346;12.372;2023-07-20T00:20:37;15.80;99.90
36374;DHT22;22399;51.346;12.372;2023-07-20T00:23:06;15.90;99.90
36374;DHT22;22399;51.346;12.372;2023-07-20T00:25:34;15.90;99.90
36374;DHT22;22399;51.346;12.372;2023-07-20T00:28:03;16.00;99.90
36374;DHT22;22399;51.346;12.372;2023-07-20T00:30:32;15.90;99.90
36374;DHT22;22399;51.346;12.372;2023-07-20T00:33:00;15.90;99.90
36374;DHT22;22399;51.346;12.372;2023-07-20T00:35:29;15.90;99.90
36374;DHT22;22399;51.346;12.372;2023-07-20T00:38:00;15.90;99.90
36374;DHT22;22399;51.346;12.372;2023-07-20T00:40:34;15.90;99.90
36374;DHT22;22399;51.346;12.372;2023-07-20T00:43:03;15.90;99.90
36374;DHT22;22399;51.346;12.372;2023-07-20T00:45:33;15.90;99.90
36374;DHT22;22399;51.346;12.372;2023-07-20T00:48:04;16.00;99.90
36374;DHT22;22399;51.346;12.372;2023-07-20T00:50:34;16.00;99.90
36374;DHT22;22399;51.346;12.372;2023-07-20T00:53:05;16.00;99.90
36374;DHT22;22399;51.346;12.372;2023-07-20T00:55:34;16.00;99.90
36374;DHT22;22399;51.346;12.372;2023-07-20T00:58:03;16.00;99.90
36374;DHT22;22399;51.346;12.372;2023-07-20T01:00:34;16.10;99.90
36374;DHT22;22399;51.346;12.372;2023-07-20T01:03:03;16.00;99.90
36374;DHT22;22399;51.346;12.372;2023-07-20T01:05:38;16.00;99.90
36374;DHT22;22399;51.346;12.372;2023-07-20T01:08:17;16.00;99.90
36374;DHT22;22399;51.346;12.372;2023-07-20T01:10:50;15.90;99.90
36374;DHT22;22399;51.346;12.372;2023-07-20T01:13:21;15.90;99.90
36374;DHT22;22399;51.346;12.372;2023-07-20T01:15:56;15.90;99.90
36374;DHT22;22399;51.346;12.372;2023-07-20T01:18:25;15.90;99.90
36374;DHT22;22399;51.346;12.372;2023-07-20T01:20:59;15.90;99.90
36374;DHT22;22399;51.346;12.372;2023-07-20T01:23:50;15.90;99.90
36374;DHT22;22399;51.346;12.372;2023-07-20T01:27:00;15.90;99.90
36374;DHT22;22399;51.346;12.372;2023-07-20T01:29:52;15.90;99.90
36374;DHT22;22399;51.346;12.372;2023-07-20T01:32:25;15.90;99.90
36374;DHT22;22399;51.346;12.372;2023-07-20T01:34:55;15.90;99.90
36374;DHT22;22399;51.346;12.372;2023-07-20T01:37:25;15.90;99.90
36374;DHT22;22399;51.346;12.372;2023-07-20T01:39:57;15.80;99.90
36374;DHT22;22399;51.346;12.372;2023-07-20T01:42:26;15.80;99.90
36374;DHT22;22399;51.346;12.372;2023-07-20T01:44:55;15.80;99.90
36374;DHT22;22399;51.346;12.372;2023-07-20T01:47:25;15.80;99.90
36374;DHT22;22399;51.346;12.372;2023-07-20T01:49:53;15.70;99.90
36374;DHT22;22399;51.346;12.372;2023-07-20T01:52:21;15.70;99.90
36374;DHT22;22399;51.346;12.372;2023-07-20T01:54:50;15.60;99.90
36374;DHT22;22399;51.346;12.372;2023-07-20T01:57:18;15.60;99.90
36374;DHT22;22399;51.346;12.372;2023-07-20T01:59:47;15.60;99.90
36374;DHT22;22399;51.346;12.372;2023-07-20T02:02:16;15.60;99.90
36374;DHT22;22399;51.346;12.372;2023-07-20T02:04:46;15.50;99.90
36374;DHT22;22399;51.346;12.372;2023-07-20T02:07:15;15.60;99.90
36374;DHT22;22399;51.346;12.372;2023-07-20T02:09:43;15.60;99.90
36374;DHT22;22399;51.346;12.372;2023-07-20T02:12:11;15.50;99.90
36374;DHT22;22399;51.346;12.372;2023-07-20T02:14:40;15.50;99.90
36374;DHT22;22399;51.346;12.372;2023-07-20T02:17:08;15.50;99.90
36374;DHT22;22399;51.346;12.372;2023-07-20T02:19:40;15.40;99.90
36374;DHT22;22399;51.346;12.372;2023-07-20T02:22:10;15.40;99.90
36374;DHT22;22399;51.346;12.372;2023-07-20T02:24:39;15.40;99.90
36374;DHT22;22399;51.346;12.372;2023-07-20T02:27:07;15.40;99.90
36374;DHT22;22399;51.346;12.372;2023-07-20T02:29:36;15.50;99.90
36374;DHT22;22399;51.346;12.372;2023-07-20T02:32:05;15.60;99.90
36374;DHT22;22399;51.346;12.372;2023-07-20T02:34:34;15.60;99.90
36374;DHT22;22399;51.346;12.372;2023-07-20T02:37:02;15.70;99.90
36374;DHT22;22399;51.346;12.372;2023-07-20T02:39:32;15.80;99.90
36374;DHT22;22399;51.346;12.372;2023-07-20T02:42:01;15.80;99.90
36374;DHT22;22399;51.346;12.372;2023-07-20T02:44:30;15.80;99.90
36374;DHT22;22399;51.346;12.372;2023-07-20T02:46:58;15.90;99.90
36374;DHT22;22399;51.346;12.372;2023-07-20T02:49:28;15.90;99.90
36374;DHT22;22399;51.346;12.372;2023-07-20T02:51:56;15.90;99.90
36374;DHT22;22399;51.346;12.372;2023-07-20T02:54:24;15.90;99.90
36374;DHT22;22399;51.346;12.372;2023-07-20T02:56:54;15.90;99.90
36374;DHT22;22399;51.346;12.372;2023-07-20T02:59:23;15.90;99.90
36374;DHT22;22399;51.346;12.372;2023-07-20T03:01:52;15.90;99.90
36374;DHT22;22399;51.346;12.372;2023-07-20T03:04:21;15.90;99.90
36374;DHT22;22399;51.346;12.372;2023-07-20T03:06:51;15.90;99.90
36374;DHT22;22399;51.346;12.372;2023-07-20T03:09:19;15.90;99.90
36374;DHT22;22399;51.346;12.372;2023-07-20T03:11:50;15.90;99.90
36374;DHT22;22399;51.346;12.372;2023-07-20T03:14:20;15.90;99.90
36374;DHT22;22399;51.346;12.372;2023-07-20T03:16:50;15.90;99.90
36374;DHT22;22399;51.346;12.372;2023-07-20T03:19:19;15.90;99.90
36374;DHT22;22399;51.346;12.372;2023-07-20T03:21:47;15.90;99.90
36374;DHT22;22399;51.346;12.372;2023-07-20T03:24:16;16.00;99.90
36374;DHT22;22399;51.346;12.372;2023-07-20T03:26:46;16.00;99.90
36374;DHT22;22399;51.346;12.372;2023-07-20T03:29:15;16.00;99.90
36374;DHT22;22399;51.346;12.372;2023-07-20T03:31:47;16.10;99.90
36374;DHT22;22399;51.346;12.372;2023-07-20T03:34:17;16.10;99.90
36374;DHT22;22399;51.346;12.372;2023-07-20T03:36:45;16.10;99.90
36374;DHT22;22399;51.346;12.372;2023-07-20T03:39:14;16.10;99.90
36374;DHT22;22399;51.346;12.372;2023-07-20T03:41:42;16.20;99.90
36374;DHT22;22399;51.346;12.372;2023-07-20T03:44:11;16.20;99.90
36374;DHT22;22399;51.346;12.372;2023-07-20T03:46:39;16.30;99.90
36374;DHT22;22399;51.346;12.372;2023-07-20T03:49:09;16.30;99.90
36374;DHT22;22399;51.346;12.372;2023-07-20T03:51:38;16.40;99.90
36374;DHT22;22399;51.346;12.372;2023-07-20T03:54:06;16.40;99.90
36374;DHT22;22399;51.346;12.372;2023-07-20T03:56:36;16.50;99.90
36374;DHT22;22399;51.346;12.372;2023-07-20T03:59:05;16.50;99.90
36374;DHT22;22399;51.346;12.372;2023-07-20T04:01:33;16.50;99.90
36374;DHT22;22399;51.346;12.372;2023-07-20T04:04:05;16.50;99.90
36374;DHT22;22399;51.346;12.372;2023-07-20T04:06:35;16.50;99.90
36374;DHT22;22399;51.346;12.372;2023-07-20T04:09:04;16.60;99.90
36374;DHT22;22399;51.346;12.372;2023-07-20T04:11:33;16.60;99.90
36374;DHT22;22399;51.346;12.372;2023-07-20T04:14:01;16.70;99.90
36374;DHT22;22399;51.346;12.372;2023-07-20T04:16:30;16.60;99.90
36374;DHT22;22399;51.346;12.372;2023-07-20T04:18:59;16.60;99.90
36374;DHT22;22399;51.346;12.372;2023-07-20T04:21:28;16.70;99.90
36374;DHT22;22399;51.346;12.372;2023-07-20T04:23:58;16.60;99.90
36374;DHT22;22399;51.346;12.372;2023-07-20T04:26:27;16.60;99.90
36374;DHT22;22399;51.346;12.372;2023-07-20T04:28:55;16.60;99.90
36374;DHT22;22399;51.346;12.372;2023-07-20T04:31:49;16.50;99.90
36374;DHT22;22399;51.346;12.372;2023-07-20T04:34:18;16.40;99.90
36374;DHT22;22399;51.346;12.372;2023-07-20T04:36:46;16.40;99.90
36374;DHT22;22399;51.346;12.372;2023-07-20T04:39:16;16.40;99.90
36374;DHT22;22399;51.346;12.372;2023-07-20T04:42:00;16.40;99.90
36374;DHT22;22399;51.346;12.372;2023-07-20T04:44:28;16.40;99.90
36374;DHT22;22399;51.346;12.372;2023-07-20T04:46:57;16.50;99.90
36374;DHT22;22399;51.346;12.372;2023-07-20T04:49:25;16.60;99.90
36374;DHT22;22399;51.346;12.372;2023-07-20T04:51:54;16.60;99.90
36374;DHT22;22399;51.346;12.372;2023-07-20T04:54:24;16.60;99.90
36374;DHT22;22399;51.346;12.372;2023-07-20T04:56:54;16.70;99.90
36374;DHT22;22399;51.346;12.372;2023-07-20T04:59:23;16.80;99.90
36374;DHT22;22399;51.346;12.372;2023-07-20T05:01:51;16.90;99.90
36374;DHT22;22399;51.346;12.372;2023-07-20T05:04:21;17.00;99.90
36374;DHT22;22399;51.346;12.372;2023-07-20T05:06:49;17.00;99.90
36374;DHT22;22399;51.346;12.372;2023-07-20T05:09:18;17.10;99.90
36374;DHT22;22399;51.346;12.372;2023-07-20T05:11:50;17.20;99.90
36374;DHT22;22399;51.346;12.372;2023-07-20T05:14:18;17.30;99.90
36374;DHT22;22399;51.346;12.372;2023-07-20T05:16:48;17.30;99.90
36374;DHT22;22399;51.346;12.372;2023-07-20T05:19:18;17.30;99.90
36374;DHT22;22399;51.346;12.372;2023-07-20T05:21:46;17.40;99.90
36374;DHT22;22399;51.346;12.372;2023-07-20T05:24:15;17.40;99.90
36374;DHT22;22399;51.346;12.372;2023-07-20T05:26:43;17.50;99.90
36374;DHT22;22399;51.346;12.372;2023-07-20T05:29:13;17.50;99.90
36374;DHT22;22399;51.346;12.372;2023-07-20T05:31:42;17.60;99.90
36374;DHT22;22399;51.346;12.372;2023-07-20T05:34:11;17.60;99.90
36374;DHT22;22399;51.346;12.372;2023-07-20T05:36:40;17.70;99.90
36374;DHT22;22399;51.346;12.372;2023-07-20T05:39:08;17.70;99.90
36374;DHT22;22399;51.346;12.372;2023-07-20T05:41:37;17.80;99.90
36374;DHT22;22399;51.346;12.372;2023-07-20T05:44:05;17.80;99.90
36374;DHT22;22399;51.346;12.372;2023-07-20T05:46:35;17.80;99.90
36374;DHT22;22399;51.346;12.372;2023-07-20T05:49:22;17.80;99.90
36374;DHT22;22399;51.346;12.372;2023-07-20T05:51:51;17.70;99.90
36374;DHT22;22399;51.346;12.372;2023-07-20T05:54:19;17.70;99.90
36374;DHT22;22399;51.346;12.372;2023-07-20T05:56:47;17.90;99.90
36374;DHT22;22399;51.346;12.372;2023-07-20T05:59:16;18.00;99.90
36374;DHT22;22399;51.346;12.372;2023-07-20T06:01:46;18.20;99.90
36374;DHT22;22399;51.346;12.372;2023-07-20T06:04:16;18.30;99.90
36374;DHT22;22399;51.346;12.372;2023-07-20T06:06:44;18.50;99.90
36374;DHT22;22399;51.346;12.372;2023-07-20T06:09:13;18.60;99.90
36374;DHT22;22399;51.346;12.372;2023-07-20T06:11:41;19.40;99.90
36374;DHT22;22399;51.346;12.372;2023-07-20T06:14:10;20.60;99.90
36374;DHT22;22399;51.346;12.372;2023-07-20T06:16:38;22.00;99.90
36374;DHT22;22399;51.346;12.372;2023-07-20T06:19:08;23.10;99.90
36374;DHT22;22399;51.346;12.372;2023-07-20T06:21:38;23.30;99.90
36374;DHT22;22399;51.346;12.372;2023-07-20T06:24:06;23.90;99.90
36374;DHT22;22399;51.346;12.372;2023-07-20T06:26:35;24.00;99.90
36374;DHT22;22399;51.346;12.372;2023-07-20T06:29:06;24.70;99.90
36374;DHT22;22399;51.346;12.372;2023-07-20T06:31:35;24.90;99.90
36374;DHT22;22399;51.346;12.372;2023-07-20T06:34:03;24.80;99.90
36374;DHT22;22399;51.346;12.372;2023-07-20T06:36:33;25.30;99.90
36374;DHT22;22399;51.346;12.372;2023-07-20T06:39:02;25.90;99.90
36374;DHT22;22399;51.346;12.372;2023-07-20T06:41:34;26.20;98.30
36374;DHT22;22399;51.346;12.372;2023-07-20T06:44:05;26.50;96.40
36374;DHT22;22399;51.346;12.372;2023-07-20T06:46:34;26.60;96.30
36374;DHT22;22399;51.346;12.372;2023-07-20T06:49:06;26.60;94.80
36374;DHT22;22399;51.346;12.372;2023-07-20T06:51:39;26.10;95.00
36374;DHT22;22399;51.346;12.372;2023-07-20T06:54:08;25.60;97.80
36374;DHT22;22399;51.346;12.372;2023-07-20T06:56:36;25.70;96.50
36374;DHT22;22399;51.346;12.372;2023-07-20T06:59:12;24.90;96.90
36374;DHT22;22399;51.346;12.372;2023-07-20T07:01:41;24.00;98.50
36374;DHT22;22399;51.346;12.372;2023-07-20T07:04:09;23.50;99.90
36374;DHT22;22399;51.346;12.372;2023-07-20T07:06:39;23.20;99.90
36374;DHT22;22399;51.346;12.372;2023-07-20T07:09:08;23.00;99.90
36374;DHT22;22399;51.346;12.372;2023-07-20T07:11:37;22.60;99.90
36374;DHT22;22399;51.346;12.372;2023-07-20T07:14:05;22.40;99.90
36374;DHT22;22399;51.346;12.372;2023-07-20T07:16:34;22.20;99.90
36374;DHT22;22399;51.346;12.372;2023-07-20T07:19:06;21.90;99.90
36374;DHT22;22399;51.346;12.372;2023-07-20T07:21:35;21.70;99.90
36374;DHT22;22399;51.346;12.372;2023-07-20T07:24:05;21.60;99.90
36374;DHT22;22399;51.346;12.372;2023-07-20T07:26:34;21.50;99.90
36374;DHT22;22399;51.346;12.372;2023-07-20T07:29:03;21.50;99.90
36374;DHT22;22399;51.346;12.372;2023-07-20T07:31:34;21.30;99.90
36374;DHT22;22399;51.346;12.372;2023-07-20T07:34:03;21.10;99.90
36374;DHT22;22399;51.346;12.372;2023-07-20T07:36:32;21.00;99.90
36374;DHT22;22399;51.346;12.372;2023-07-20T07:39:01;20.90;99.90
36374;DHT22;22399;51.346;12.372;2023-07-20T07:41:51;21.00;99.90
36374;DHT22;22399;51.346;12.372;2023-07-20T07:44:20;21.10;99.90
36374;DHT22;22399;51.346;12.372;2023-07-20T07:46:49;21.30;99.90
36374;DHT22;22399;51.346;12.372;2023-07-20T07:49:17;21.70;99.90
36374;DHT22;22399;51.346;12.372;2023-07-20T07:51:46;22.20;99.90
36374;DHT22;22399;51.346;12.372;2023-07-20T07:54:15;22.60;99.90
36374;DHT22;22399;51.346;12.372;2023-07-20T07:56:44;22.80;99.90
36374;DHT22;22399;51.346;12.372;2023-07-20T07:59:14;23.10;99.90
36374;DHT22;22399;51.346;12.372;2023-07-20T08:01:42;24.10;99.90
36374;DHT22;22399;51.346;12.372;2023-07-20T08:04:10;25.30;97.60
36374;DHT22;22399;51.346;12.372;2023-07-20T08:06:40;25.20;96.10
36374;DHT22;22399;51.346;12.372;2023-07-20T08:09:08;24.60;96.30
36374;DHT22;22399;51.346;12.372;2023-07-20T08:11:39;24.10;98.10
36374;DHT22;22399;51.346;12.372;2023-07-20T08:14:07;23.80;99.90
36374;DHT22;22399;51.346;12.372;2023-07-20T08:16:37;23.70;99.70
36374;DHT22;22399;51.346;12.372;2023-07-20T08:19:06;23.60;99.90
36374;DHT22;22399;51.346;12.372;2023-07-20T08:21:34;23.60;99.90
36374;DHT22;22399;51.346;12.372;2023-07-20T08:24:03;24.10;99.50
36374;DHT22;22399;51.346;12.372;2023-07-20T08:26:32;24.50;97.30
36374;DHT22;22399;51.346;12.372;2023-07-20T08:29:00;24.40;96.50
36374;DHT22;22399;51.346;12.372;2023-07-20T08:31:29;24.20;96.20
36374;DHT22;22399;51.346;12.372;2023-07-20T08:33:59;24.10;96.60
36374;DHT22;22399;51.346;12.372;2023-07-20T08:36:36;24.10;96.30
36374;DHT22;22399;51.346;12.372;2023-07-20T08:39:06;23.80;95.70
36374;DHT22;22399;51.346;12.372;2023-07-20T08:41:35;23.60;96.20
36374;DHT22;22399;51.346;12.372;2023-07-20T08:44:05;23.40;96.10
36374;DHT22;22399;51.346;12.372;2023-07-20T08:46:35;23.30;96.70
36374;DHT22;22399;51.346;12.372;2023-07-20T08:49:06;23.80;96.90
36374;DHT22;22399;51.346;12.372;2023-07-20T08:51:35;25.00;94.50
36374;DHT22;22399;51.346;12.372;2023-07-20T08:54:04;26.20;92.50
36374;DHT22;22399;51.346;12.372;2023-07-20T08:56:35;26.90;91.40
36374;DHT22;22399;51.346;12.372;2023-07-20T08:59:03;27.00;89.30
36374;DHT22;22399;51.346;12.372;2023-07-20T09:01:35;26.90;90.10
36374;DHT22;22399;51.346;12.372;2023-07-20T09:04:06;26.70;90.30
36374;DHT22;22399;51.346;12.372;2023-07-20T09:06:35;27.40;90.60
36374;DHT22;22399;51.346;12.372;2023-07-20T09:09:03;28.30;89.20
36374;DHT22;22399;51.346;12.372;2023-07-20T09:11:32;29.10;87.80
36374;DHT22;22399;51.346;12.372;2023-07-20T09:14:04;28.80;86.20
36374;DHT22;22399;51.346;12.372;2023-07-20T09:16:47;27.90;87.60
36374;DHT22;22399;51.346;12.372;2023-07-20T09:19:17;27.30;88.40
36374;DHT22;22399;51.346;12.372;2023-07-20T09:21:46;26.60;88.90
36374;DHT22;22399;51.346;12.372;2023-07-20T09:24:16;26.10;90.30
36374;DHT22;22399;51.346;12.372;2023-07-20T09:26:47;25.70;90.20
36374;DHT22;22399;51.346;12.372;2023-07-20T09:29:18;25.30;90.60
36374;DHT22;22399;51.346;12.372;2023-07-20T09:31:59;25.10;90.70
36374;DHT22;22399;51.346;12.372;2023-07-20T09:34:30;24.80;90.20
36374;DHT22;22399;51.346;12.372;2023-07-20T09:37:38;24.20;90.30
36374;DHT22;22399;51.346;12.372;2023-07-20T09:40:09;23.60;91.40
36374;DHT22;22399;51.346;12.372;2023-07-20T09:42:40;23.00;93.90
36374;DHT22;22399;51.346;12.372;2023-07-20T09:45:30;22.10;95.00
36374;DHT22;22399;51.346;12.372;2023-07-20T09:48:04;21.30;98.10
36374;DHT22;22399;51.346;12.372;2023-07-20T09:50:41;20.60;99.90
36374;DHT22;22399;51.346;12.372;2023-07-20T09:53:12;19.80;99.90
36374;DHT22;22399;51.346;12.372;2023-07-20T09:55:41;19.10;99.90
36374;DHT22;22399;51.346;12.372;2023-07-20T09:58:10;18.50;99.90
36374;DHT22;22399;51.346;12.372;2023-07-20T10:00:39;18.10;99.90
36374;DHT22;22399;51.346;12.372;2023-07-20T10:03:18;17.80;99.90
36374;DHT22;22399;51.346;12.372;2023-07-20T10:05:56;17.70;99.90
36374;DHT22;22399;51.346;12.372;2023-07-20T10:08:26;17.60;99.90
36374;DHT22;22399;51.346;12.372;2023-07-20T10:11:00;17.60;99.90
36374;DHT22;22399;51.346;12.372;2023-07-20T10:13:30;17.70;99.90
36374;DHT22;22399;51.346;12.372;2023-07-20T10:16:02;18.10;99.90
36374;DHT22;22399;51.346;12.372;2023-07-20T10:18:35;18.40;99.90
36374;DHT22;22399;51.346;12.372;2023-07-20T10:21:10;18.50;99.90
36374;DHT22;22399;51.346;12.372;2023-07-20T10:23:41;18.70;99.90
36374;DHT22;22399;51.346;12.372;2023-07-20T10:26:10;19.00;99.90
36374;DHT22;22399;51.346;12.372;2023-07-20T10:28:39;19.20;99.90
36374;DHT22;22399;51.346;12.372;2023-07-20T10:31:08;19.00;99.90
36374;DHT22;22399;51.346;12.372;2023-07-20T10:33:38;18.60;99.90
36374;DHT22;22399;51.346;12.372;2023-07-20T10:36:08;18.30;99.90
36374;DHT22;22399;51.346;12.372;2023-07-20T10:38:40;18.00;99.90
36374;DHT22;22399;51.346;12.372;2023-07-20T10:41:18;17.90;99.90
36374;DHT22;22399;51.346;12.372;2023-07-20T10:43:48;18.10;99.90
36374;DHT22;22399;51.346;12.372;2023-07-20T10:46:42;18.10;99.90
36374;DHT22;22399;51.346;12.372;2023-07-20T10:49:12;18.30;99.90
36374;DHT22;22399;51.346;12.372;2023-07-20T10:51:44;18.30;99.90
36374;DHT22;22399;51.346;12.372;2023-07-20T10:54:35;18.40;99.90
36374;DHT22;22399;51.346;12.372;2023-07-20T10:57:28;18.50;99.90
36374;DHT22;22399;51.346;12.372;2023-07-20T11:00:11;18.80;99.90
36374;DHT22;22399;51.346;12.372;2023-07-20T11:02:45;19.10;99.90
36374;DHT22;22399;51.346;12.372;2023-07-20T11:05:36;19.20;99.90
36374;DHT22;22399;51.346;12.372;2023-07-20T11:08:11;19.30;99.90
36374;DHT22;22399;51.346;12.372;2023-07-20T11:10:40;19.60;99.90
36374;DHT22;22399;51.346;12.372;2023-07-20T11:13:22;20.10;99.90
36374;DHT22;22399;51.346;12.372;2023-07-20T11:16:02;20.50;99.90
36374;DHT22;22399;51.346;12.372;2023-07-20T11:18:35;20.70;99.90
36374;DHT22;22399;51.346;12.372;2023-07-20T11:21:11;21.00;99.90
36374;DHT22;22399;51.346;12.372;2023-07-20T11:23:41;21.40;99.90
36374;DHT22;22399;51.346;12.372;2023-07-20T11:26:09;21.20;99.90
36374;DHT22;22399;51.346;12.372;2023-07-20T11:28:39;21.10;99.90
36374;DHT22;22399;51.346;12.372;2023-07-20T11:31:08;21.10;99.90
36374;DHT22;22399;51.346;12.372;2023-07-20T11:33:36;21.00;99.90
36374;DHT22;22399;51.346;12.372;2023-07-20T11:36:06;20.90;99.90
36374;DHT22;22399;51.346;12.372;2023-07-20T11:38:41;20.90;99.90
36374;DHT22;22399;51.346;12.372;2023-07-20T11:41:11;20.70;99.90
36374;DHT22;22399;51.346;12.372;2023-07-20T11:43:41;20.60;99.90
36374;DHT22;22399;51.346;12.372;2023-07-20T11:46:13;20.60;99.90
36374;DHT22;22399;51.346;12.372;2023-07-20T11:48:44;20.60;99.90
36374;DHT22;22399;51.346;12.372;2023-07-20T11:51:16;20.60;99.90
36374;DHT22;22399;51.346;12.372;2023-07-20T11:53:47;20.90;99.90
36374;DHT22;22399;51.346;12.372;2023-07-20T11:56:16;21.30;99.90
36374;DHT22;22399;51.346;12.372;2023-07-20T11:58:45;21.60;99.90
36374;DHT22;22399;51.346;12.372;2023-07-20T12:01:16;21.90;99.90
36374;DHT22;22399;51.346;12.372;2023-07-20T12:03:48;21.90;99.90
36374;DHT22;22399;51.346;12.372;2023-07-20T12:06:23;21.80;99.90
36374;DHT22;22399;51.346;12.372;2023-07-20T12:08:57;21.80;99.90
36374;DHT22;22399;51.346;12.372;2023-07-20T12:11:33;21.80;99.90
36374;DHT22;22399;51.346;12.372;2023-07-20T12:14:03;21.80;99.90
36374;DHT22;22399;51.346;12.372;2023-07-20T12:16:43;21.80;99.90
36374;DHT22;22399;51.346;12.372;2023-07-20T12:19:13;21.80;99.90
36374;DHT22;22399;51.346;12.372;2023-07-20T12:21:42;22.20;99.90
36374;DHT22;22399;51.346;12.372;2023-07-20T12:24:14;22.40;99.90
36374;DHT22;22399;51.346;12.372;2023-07-20T12:26:56;22.70;99.90
36374;DHT22;22399;51.346;12.372;2023-07-20T12:29:25;22.60;99.90
36374;DHT22;22399;51.346;12.372;2023-07-20T12:31:54;22.70;99.90
36374;DHT22;22399;51.346;12.372;2023-07-20T12:34:23;22.80;99.90
36374;DHT22;22399;51.346;12.372;2023-07-20T12:36:52;23.10;99.90
36374;DHT22;22399;51.346;12.372;2023-07-20T12:39:22;23.50;99.90
36374;DHT22;22399;51.346;12.372;2023-07-20T12:41:50;23.80;99.90
36374;DHT22;22399;51.346;12.372;2023-07-20T12:44:22;23.90;99.90
36374;DHT22;22399;51.346;12.372;2023-07-20T12:46:50;24.10;99.90
36374;DHT22;22399;51.346;12.372;2023-07-20T12:49:19;24.10;99.90
36374;DHT22;22399;51.346;12.372;2023-07-20T12:51:50;24.60;99.90
36374;DHT22;22399;51.346;12.372;2023-07-20T12:54:22;25.10;99.90
36374;DHT22;22399;51.346;12.372;2023-07-20T12:56:51;25.40;99.90
36374;DHT22;22399;51.346;12.372;2023-07-20T12:59:22;25.20;99.90
36374;DHT22;22399;51.346;12.372;2023-07-20T13:01:55;25.20;99.90
36374;DHT22;22399;51.346;12.372;2023-07-20T13:04:23;25.40;99.90
36374;DHT22;22399;51.346;12.372;2023-07-20T13:06:52;25.30;99.90
36374;DHT22;22399;51.346;12.372;2023-07-20T13:09:23;25.00;99.90
36374;DHT22;22399;51.346;12.372;2023-07-20T13:11:52;24.70;99.90
36374;DHT22;22399;51.346;12.372;2023-07-20T13:14:24;24.50;99.90
36374;DHT22;22399;51.346;12.372;2023-07-20T13:16:55;24.40;99.90
36374;DHT22;22399;51.346;12.372;2023-07-20T13:19:24;24.50;99.90
36374;DHT22;22399;51.346;12.372;2023-07-20T13:21:57;24.30;99.90
36374;DHT22;22399;51.346;12.372;2023-07-20T13:24:27;24.20;99.90
36374;DHT22;22399;51.346;12.372;2023-07-20T13:26:56;24.30;99.90
36374;DHT22;22399;51.346;12.372;2023-07-20T13:29:24;24.30;98.80
36374;DHT22;22399;51.346;12.372;2023-07-20T13:31:53;24.40;98.30
36374;DHT22;22399;51.346;12.372;2023-07-20T13:34:22;25.50;96.00
36374;DHT22;22399;51.346;12.372;2023-07-20T13:36:51;26.10;93.90
36374;DHT22;22399;51.346;12.372;2023-07-20T13:39:20;25.60;93.70
36374;DHT22;22399;51.346;12.372;2023-07-20T13:41:53;25.30;94.50
36374;DHT22;22399;51.346;12.372;2023-07-20T13:44:22;25.20;94.80
36374;DHT22;22399;51.346;12.372;2023-07-20T13:46:51;25.60;93.60
36374;DHT22;22399;51.346;12.372;2023-07-20T13:49:40;26.20;92.10
36374;DHT22;22399;51.346;12.372;2023-07-20T13:52:11;26.40;91.10
36374;DHT22;22399;51.346;12.372;2023-07-20T13:54:43;26.30;91.50
36374;DHT22;22399;51.346;12.372;2023-07-20T13:57:16;26.40;90.80
36374;DHT22;22399;51.346;12.372;2023-07-20T13:59:45;25.90;91.50
36374;DHT22;22399;51.346;12.372;2023-07-20T14:02:14;25.50;91.30
36374;DHT22;22399;51.346;12.372;2023-07-20T14:04:48;25.30;91.90
36374;DHT22;22399;51.346;12.372;2023-07-20T14:07:25;25.20;92.10
36374;DHT22;22399;51.346;12.372;2023-07-20T14:09:54;25.10;92.00
36374;DHT22;22399;51.346;12.372;2023-07-20T14:12:27;25.00;92.20
36374;DHT22;22399;51.346;12.372;2023-07-20T14:14:58;25.10;92.30
36374;DHT22;22399;51.346;12.372;2023-07-20T14:17:29;25.30;91.50
36374;DHT22;22399;51.346;12.372;2023-07-20T14:19:59;25.20;91.30
36374;DHT22;22399;51.346;12.372;2023-07-20T14:22:28;25.20;91.10
36374;DHT22;22399;51.346;12.372;2023-07-20T14:24:56;25.30;90.70
36374;DHT22;22399;51.346;12.372;2023-07-20T14:27:27;25.30;90.40
36374;DHT22;22399;51.346;12.372;2023-07-20T14:29:56;24.90;89.70
36374;DHT22;22399;51.346;12.372;2023-07-20T14:32:26;24.60;89.70
36374;DHT22;22399;51.346;12.372;2023-07-20T14:34:54;24.30;90.00
36374;DHT22;22399;51.346;12.372;2023-07-20T14:37:23;24.30;90.80
36374;DHT22;22399;51.346;12.372;2023-07-20T14:39:52;24.10;90.20
36374;DHT22;22399;51.346;12.372;2023-07-20T14:42:21;24.10;90.60
36374;DHT22;22399;51.346;12.372;2023-07-20T14:44:50;24.10;90.50
36374;DHT22;22399;51.346;12.372;2023-07-20T14:47:19;24.00;90.50
36374;DHT22;22399;51.346;12.372;2023-07-20T14:49:48;24.00;90.30
36374;DHT22;22399;51.346;12.372;2023-07-20T14:52:16;23.90;89.90
36374;DHT22;22399;51.346;12.372;2023-07-20T14:54:45;23.80;89.90
36374;DHT22;22399;51.346;12.372;2023-07-20T14:57:13;23.80;90.00
36374;DHT22;22399;51.346;12.372;2023-07-20T14:59:42;23.70;89.20
36374;DHT22;22399;51.346;12.372;2023-07-20T15:02:13;23.60;89.20
36374;DHT22;22399;51.346;12.372;2023-07-20T15:04:46;23.60;89.40
36374;DHT22;22399;51.346;12.372;2023-07-20T15:07:16;23.70;88.90
36374;DHT22;22399;51.346;12.372;2023-07-20T15:09:46;23.80;87.80
36374;DHT22;22399;51.346;12.372;2023-07-20T15:12:14;23.90;87.70
36374;DHT22;22399;51.346;12.372;2023-07-20T15:14:43;24.10;87.30
36374;DHT22;22399;51.346;12.372;2023-07-20T15:17:13;24.20;86.70
36374;DHT22;22399;51.346;12.372;2023-07-20T15:19:41;24.10;84.10
36374;DHT22;22399;51.346;12.372;2023-07-20T15:22:10;24.00;84.20
36374;DHT22;22399;51.346;12.372;2023-07-20T15:24:39;24.00;83.40
36374;DHT22;22399;51.346;12.372;2023-07-20T15:27:08;24.20;83.40
36374;DHT22;22399;51.346;12.372;2023-07-20T15:29:37;24.40;82.80
36374;DHT22;22399;51.346;12.372;2023-07-20T15:32:06;24.50;81.50
36374;DHT22;22399;51.346;12.372;2023-07-20T15:34:36;24.40;80.70
36374;DHT22;22399;51.346;12.372;2023-07-20T15:37:05;24.30;80.10